Terminal Aerodrome Forecast
Issued by NWS

Home | Current Version | Previous Version | Text Only | Print | Product List | Glossary On
Versions: 1 2 3 4 5 6 7 8 9 10 11 12 13 14 15 16
378
FTUS41 KBTV 231933 AAA
TAFMSS
TAF AMD
KMSS 231933Z 2320/2418 25011G17KT P6SM VCSH BKN060
     FM240000 25005KT P6SM SCT100
     FM241500 27006KT P6SM SCT025=

USA.gov is the U.S. government's official web portal to all federal, state and local government web resources and services.